Wayland, Ohio
Current Conditions -  °F | °C
As of 11:51 PM on Sunday 21 Dec 2014 (Local Time) from KYNG Reporting Station
Few Clouds Few Clouds  
Wind Chill: -8°   Ceiling: Unl
Heat Index: -4°   Visibility: 10mi
Dew Point: -7°   Wind: 7mph
Humidity: 81%   Direction: 80°E
Pressure: 30.19"   Gusts: NA
Location:  41.16°N, 81.07°W
Report Text: KYNG 220451Z 08006KT 10SM FEW020 FEW250 M04/M07 A3019 RMK AO2 SLP238 T10391067 410061044
Loading
Personal Weather Stations






























Interactive Weather Map New forecast layout! Learn more

10-Day Weather Forecast

Advertisements
Track Severe Weather on mobile